createdAt,value
2023-01-17T00:00:05.555Z,3.81
2023-01-17T00:01:05.458Z,3.80
2023-01-17T00:02:05.452Z,3.87
2023-01-17T00:03:05.453Z,3.86
2023-01-17T00:04:05.466Z,3.88
2023-01-17T00:05:05.428Z,3.87
2023-01-17T00:06:05.402Z,3.91
2023-01-17T00:07:05.461Z,3.86
2023-01-17T00:08:05.376Z,3.83
2023-01-17T00:09:05.386Z,3.88
2023-01-17T00:10:05.357Z,3.91
2023-01-17T00:11:05.377Z,3.94
2023-01-17T00:12:05.344Z,3.88
2023-01-17T00:13:05.363Z,3.92
2023-01-17T00:14:05.334Z,3.95
2023-01-17T00:15:05.326Z,3.92
2023-01-17T00:16:05.314Z,3.94
2023-01-17T00:17:05.307Z,3.94
2023-01-17T00:18:05.292Z,3.95
2023-01-17T00:19:05.289Z,3.92
2023-01-17T00:20:05.259Z,3.91
2023-01-17T00:21:05.275Z,3.92
2023-01-17T00:22:05.237Z,3.92
2023-01-17T00:23:05.247Z,3.92
2023-01-17T00:24:05.256Z,3.92
2023-01-17T00:25:05.227Z,3.94
2023-01-17T00:26:05.344Z,3.94
2023-01-17T00:27:05.207Z,3.98
2023-01-17T00:28:05.177Z,3.98
2023-01-17T00:29:05.214Z,3.94
2023-01-17T00:30:05.161Z,3.94
2023-01-17T00:31:05.236Z,3.88
2023-01-17T00:32:05.133Z,3.88
2023-01-17T00:33:05.148Z,3.88
2023-01-17T00:34:05.120Z,3.88
2023-01-17T00:35:05.147Z,3.88
2023-01-17T00:36:05.093Z,3.88
2023-01-17T00:37:05.118Z,3.87
2023-01-17T00:38:05.092Z,3.86
2023-01-17T00:39:05.090Z,3.86
2023-01-17T00:40:05.295Z,3.86
2023-01-17T00:41:05.068Z,3.84
2023-01-17T00:42:05.035Z,3.78
2023-01-17T00:43:05.042Z,3.77
2023-01-17T00:44:05.026Z,3.77
2023-01-17T00:45:05.022Z,3.69
2023-01-17T00:46:05.017Z,3.68
2023-01-17T00:47:05.011Z,3.63
2023-01-17T00:48:04.987Z,3.58
2023-01-17T00:49:04.988Z,3.55
2023-01-17T00:50:04.951Z,3.51
2023-01-17T00:51:04.988Z,3.47
2023-01-17T00:52:04.941Z,3.44
2023-01-17T00:53:04.950Z,3.42
2023-01-17T00:54:04.911Z,3.40
2023-01-17T00:55:04.922Z,3.36
2023-01-17T00:56:04.885Z,3.36
2023-01-17T00:57:04.917Z,3.29
2023-01-17T00:58:04.871Z,3.29
2023-01-17T00:59:04.893Z,3.26
2023-01-17T01:00:04.911Z,3.22
2023-01-17T01:01:04.957Z,3.18
2023-01-17T01:02:05.135Z,3.19
2023-01-17T01:03:04.837Z,3.18
2023-01-17T01:04:04.804Z,3.18
2023-01-17T01:05:04.824Z,3.13
2023-01-17T01:06:04.799Z,3.16
2023-01-17T01:07:04.807Z,3.16
2023-01-17T01:08:04.793Z,3.14
2023-01-17T01:09:04.795Z,3.16
2023-01-17T01:10:04.754Z,3.14
2023-01-17T01:11:04.765Z,3.18
2023-01-17T01:12:04.731Z,3.21
2023-01-17T01:13:04.769Z,3.16
2023-01-17T01:14:04.705Z,3.18
2023-01-17T01:15:04.718Z,3.19
2023-01-17T01:16:04.804Z,3.18
2023-01-17T01:17:04.696Z,3.22
2023-01-17T01:18:04.663Z,3.25
2023-01-17T01:19:04.711Z,3.25
2023-01-17T01:20:04.686Z,3.28
2023-01-17T01:21:04.661Z,3.25
2023-01-17T01:22:04.623Z,3.25
2023-01-17T01:23:04.636Z,3.29
2023-01-17T01:24:04.633Z,3.28
2023-01-17T01:25:04.626Z,3.29
2023-01-17T01:26:04.587Z,3.32
2023-01-17T01:27:04.600Z,3.29
2023-01-17T01:28:04.572Z,3.32
2023-01-17T01:29:04.597Z,3.32
2023-01-17T01:30:04.559Z,3.32
2023-01-17T01:31:04.562Z,3.36
2023-01-17T01:32:04.529Z,3.34
2023-01-17T01:33:04.536Z,3.36
2023-01-17T01:34:04.501Z,3.36
2023-01-17T01:35:04.554Z,3.36
2023-01-17T01:36:04.481Z,3.36
2023-01-17T01:37:04.496Z,3.36
2023-01-17T01:38:04.462Z,3.36
2023-01-17T01:39:04.486Z,3.40
2023-01-17T01:40:04.516Z,3.36
2023-01-17T01:41:04.468Z,3.36
2023-01-17T01:42:04.424Z,3.44
2023-01-17T01:43:04.432Z,3.41
2023-01-17T01:44:04.423Z,3.41
2023-01-17T01:45:04.424Z,3.42
2023-01-17T01:46:04.438Z,3.42
2023-01-17T01:47:04.416Z,3.42
2023-01-17T01:48:04.386Z,3.42
2023-01-17T01:49:04.378Z,3.42
2023-01-17T01:50:04.363Z,3.44
2023-01-17T01:51:04.362Z,3.44
2023-01-17T01:52:04.337Z,3.45
2023-01-17T01:53:04.348Z,3.44
2023-01-17T01:54:04.302Z,3.47
2023-01-17T01:55:04.313Z,3.44
2023-01-17T01:56:04.288Z,3.42
2023-01-17T01:57:04.305Z,3.45
2023-01-17T01:58:04.282Z,3.45
2023-01-17T01:59:04.327Z,3.42
2023-01-17T02:00:04.249Z,3.42
2023-01-17T02:01:04.367Z,3.41
2023-01-17T02:02:04.230Z,3.42
2023-01-17T02:03:04.253Z,3.42
2023-01-17T02:04:04.204Z,3.41
2023-01-17T02:05:04.870Z,3.41
2023-01-17T02:06:04.182Z,3.37
2023-01-17T02:07:04.196Z,3.40
2023-01-17T02:08:04.177Z,3.37
2023-01-17T02:09:04.195Z,3.36
2023-01-17T02:10:04.159Z,3.37
2023-01-17T02:11:04.150Z,3.44
2023-01-17T02:12:04.136Z,3.44
2023-01-17T02:13:04.165Z,3.42
2023-01-17T02:14:04.105Z,3.41
2023-01-17T02:15:04.106Z,3.37
2023-01-17T02:16:04.089Z,3.42
2023-01-17T02:17:04.093Z,3.37
2023-01-17T02:18:04.053Z,3.34
2023-01-17T02:19:04.086Z,3.31
2023-01-17T02:20:04.037Z,3.31
2023-01-17T02:21:04.049Z,3.25
2023-01-17T02:22:04.018Z,3.23
2023-01-17T02:23:04.029Z,3.23
2023-01-17T02:24:03.997Z,3.21
2023-01-17T02:25:04.042Z,3.23
2023-01-17T02:26:03.976Z,3.25
2023-01-17T02:27:04.003Z,3.26
2023-01-17T02:28:03.965Z,3.26
2023-01-17T02:29:03.972Z,3.25
2023-01-17T02:30:03.974Z,3.29
2023-01-17T02:31:03.958Z,3.31
2023-01-17T02:32:03.917Z,3.31
2023-01-17T02:33:03.927Z,3.31
2023-01-17T02:34:03.947Z,3.29
2023-01-17T02:35:03.909Z,3.32
2023-01-17T02:36:03.888Z,3.31
2023-01-17T02:37:03.888Z,3.32
2023-01-17T02:38:03.870Z,3.32
2023-01-17T02:39:03.891Z,3.32
2023-01-17T02:40:03.836Z,3.29
2023-01-17T02:41:03.886Z,3.32
2023-01-17T02:42:03.812Z,3.32
2023-01-17T02:43:03.831Z,3.31
2023-01-17T02:44:03.818Z,3.31
2023-01-17T02:45:03.808Z,3.34
2023-01-17T02:46:03.846Z,3.36
2023-01-17T02:47:03.799Z,3.31
2023-01-17T02:48:03.757Z,3.34
2023-01-17T02:49:03.767Z,3.32
2023-01-17T02:50:03.736Z,3.34
2023-01-17T02:51:03.760Z,3.29
2023-01-17T02:52:03.723Z,3.29
2023-01-17T02:53:03.752Z,3.29
2023-01-17T02:54:03.713Z,3.29
2023-01-17T02:55:03.715Z,3.26
2023-01-17T02:56:03.681Z,3.28
2023-01-17T02:57:03.695Z,3.26
2023-01-17T02:58:03.684Z,3.25
2023-01-17T02:59:03.685Z,3.25
2023-01-17T03:00:03.637Z,3.26
2023-01-17T03:01:03.756Z,3.23
2023-01-17T03:02:03.881Z,3.22
2023-01-17T03:03:03.676Z,3.19
2023-01-17T03:04:03.595Z,3.19
2023-01-17T03:05:03.630Z,3.13
2023-01-17T03:06:03.570Z,3.13
2023-01-17T03:07:03.591Z,3.11
2023-01-17T03:08:03.578Z,3.05
2023-01-17T03:09:03.575Z,3.04
2023-01-17T03:10:03.570Z,2.97
2023-01-17T03:11:03.550Z,2.93
2023-01-17T03:12:03.543Z,2.86
2023-01-17T03:13:03.527Z,2.79
2023-01-17T03:14:03.505Z,2.75
2023-01-17T03:15:03.520Z,2.65
2023-01-17T03:16:03.487Z,2.61
2023-01-17T03:17:03.486Z,2.51
2023-01-17T03:18:03.448Z,2.46
2023-01-17T03:19:03.474Z,2.39
2023-01-17T03:20:03.458Z,2.35
2023-01-17T03:21:03.441Z,2.32
2023-01-17T03:22:03.412Z,2.31
2023-01-17T03:23:03.439Z,2.25
2023-01-17T03:24:03.390Z,2.20
2023-01-17T03:25:03.423Z,2.18
2023-01-17T03:26:03.377Z,2.18
2023-01-17T03:27:03.380Z,2.20
2023-01-17T03:28:03.362Z,2.14
2023-01-17T03:29:03.378Z,2.13
2023-01-17T03:30:03.336Z,2.11
2023-01-17T03:31:03.462Z,2.13
2023-01-17T03:32:03.312Z,2.10
2023-01-17T03:33:03.320Z,2.11
2023-01-17T03:34:03.286Z,2.10
2023-01-17T03:35:03.304Z,2.13
2023-01-17T03:36:03.284Z,2.07
2023-01-17T03:37:03.310Z,2.06
2023-01-17T03:38:03.252Z,2.00
2023-01-17T03:39:03.267Z,1.92
2023-01-17T03:40:03.237Z,1.92
2023-01-17T03:41:03.241Z,1.91
2023-01-17T03:42:03.225Z,1.88
2023-01-17T03:43:03.224Z,1.87
2023-01-17T03:44:03.192Z,1.85
2023-01-17T03:45:03.201Z,1.87
2023-01-17T03:46:03.201Z,1.88
2023-01-17T03:47:03.207Z,1.89
2023-01-17T03:48:03.168Z,1.94
2023-01-17T03:49:03.176Z,1.92
2023-01-17T03:50:03.146Z,1.95
2023-01-17T03:51:03.168Z,1.97
2023-01-17T03:52:03.111Z,1.94
2023-01-17T03:53:03.151Z,1.97
2023-01-17T03:54:03.085Z,1.99
2023-01-17T03:55:03.101Z,2.00
2023-01-17T03:56:03.071Z,2.00
2023-01-17T03:57:03.086Z,2.00
2023-01-17T03:58:03.079Z,2.00
2023-01-17T03:59:03.081Z,1.99
2023-01-17T04:00:03.034Z,2.02
2023-01-17T04:01:03.136Z,1.97
2023-01-17T04:02:03.214Z,1.91
2023-01-17T04:03:03.023Z,1.88
2023-01-17T04:04:03.004Z,1.84
2023-01-17T04:05:02.998Z,1.78
2023-01-17T04:06:02.967Z,1.76
2023-01-17T04:07:02.996Z,1.70
2023-01-17T04:08:02.944Z,1.68
2023-01-17T04:09:02.989Z,1.67
2023-01-17T04:10:02.931Z,1.60
2023-01-17T04:11:02.925Z,1.55
2023-01-17T04:12:02.944Z,1.49
2023-01-17T04:13:02.898Z,1.42
2023-01-17T04:14:02.919Z,1.38
2023-01-17T04:15:02.934Z,1.30
2023-01-17T04:16:02.890Z,1.26
2023-01-17T04:17:02.883Z,1.20
2023-01-17T04:18:02.855Z,1.14
2023-01-17T04:19:02.864Z,1.04
2023-01-17T04:20:02.854Z,0.98
2023-01-17T04:21:02.847Z,0.99
2023-01-17T04:22:02.817Z,0.94
2023-01-17T04:23:02.819Z,0.84
2023-01-17T04:24:02.784Z,0.81
2023-01-17T04:25:02.812Z,0.80
2023-01-17T04:26:02.780Z,0.74
2023-01-17T04:27:02.789Z,0.70
2023-01-17T04:28:02.756Z,0.73
2023-01-17T04:29:02.761Z,0.73
2023-01-17T04:30:02.764Z,0.70
2023-01-17T04:31:02.850Z,0.69
2023-01-17T04:32:02.713Z,0.66
2023-01-17T04:33:02.725Z,0.63
2023-01-17T04:34:02.688Z,0.62
2023-01-17T04:35:02.699Z,0.60
2023-01-17T04:36:02.683Z,0.59
2023-01-17T04:37:02.693Z,0.59
2023-01-17T04:38:02.669Z,0.60
2023-01-17T04:39:02.683Z,0.59
2023-01-17T04:40:02.637Z,0.60
2023-01-17T04:41:02.663Z,0.59
2023-01-17T04:42:02.633Z,0.58
2023-01-17T04:43:02.639Z,0.58
2023-01-17T04:44:02.585Z,0.55
2023-01-17T04:45:02.608Z,0.56
2023-01-17T04:46:02.577Z,0.55
2023-01-17T04:47:02.580Z,0.56
2023-01-17T04:48:02.578Z,0.56
2023-01-17T04:49:02.565Z,0.56
2023-01-17T04:50:02.524Z,0.52
2023-01-17T04:51:02.550Z,0.43
2023-01-17T04:52:02.507Z,0.50
2023-01-17T04:53:02.565Z,0.46
2023-01-17T04:54:02.503Z,0.50
2023-01-17T04:55:02.507Z,0.56
2023-01-17T04:56:02.474Z,0.58
2023-01-17T04:57:02.486Z,0.62
2023-01-17T04:58:02.447Z,0.65
2023-01-17T04:59:02.475Z,0.69
2023-01-17T05:00:02.437Z,0.68
2023-01-17T05:01:02.513Z,0.74
2023-01-17T05:02:02.517Z,0.76
2023-01-17T05:03:02.524Z,0.77
2023-01-17T05:04:02.418Z,0.80
2023-01-17T05:05:02.427Z,0.84
2023-01-17T05:06:02.373Z,0.84
2023-01-17T05:07:02.389Z,0.83
2023-01-17T05:08:02.346Z,0.84
2023-01-17T05:09:02.360Z,0.87
2023-01-17T05:10:02.358Z,0.91
2023-01-17T05:11:02.341Z,0.94
2023-01-17T05:12:02.303Z,0.92
2023-01-17T05:13:02.324Z,0.92
2023-01-17T05:14:02.305Z,0.94
2023-01-17T05:15:02.314Z,0.99
2023-01-17T05:16:02.447Z,0.98
2023-01-17T05:17:02.279Z,1.01
2023-01-17T05:18:02.249Z,0.99
2023-01-17T05:19:02.259Z,0.98
2023-01-17T05:20:02.229Z,1.02
2023-01-17T05:21:02.271Z,1.04
2023-01-17T05:22:02.208Z,1.04
2023-01-17T05:23:02.220Z,1.04
2023-01-17T05:24:02.186Z,0.95
2023-01-17T05:25:02.197Z,0.99
2023-01-17T05:26:02.182Z,0.95
2023-01-17T05:27:02.183Z,0.96
2023-01-17T05:28:02.148Z,0.96
2023-01-17T05:29:02.162Z,0.95
2023-01-17T05:30:02.167Z,0.95
2023-01-17T05:31:02.171Z,0.92
2023-01-17T05:32:02.124Z,0.94
2023-01-17T05:33:02.118Z,0.96
2023-01-17T05:34:02.093Z,0.94
2023-01-17T05:35:02.126Z,0.98
2023-01-17T05:36:02.069Z,0.98
2023-01-17T05:37:02.103Z,0.96
2023-01-17T05:38:02.098Z,0.99
2023-01-17T05:39:02.065Z,0.98
2023-01-17T05:40:02.027Z,0.99
2023-01-17T05:41:02.061Z,0.99
2023-01-17T05:42:02.024Z,1.02
2023-01-17T05:43:02.039Z,1.02
2023-01-17T05:44:01.989Z,1.02
2023-01-17T05:45:01.999Z,1.05
2023-01-17T05:46:02.065Z,1.04
2023-01-17T05:47:01.981Z,1.06
2023-01-17T05:48:01.973Z,1.10
2023-01-17T05:49:01.964Z,1.08
2023-01-17T05:50:01.935Z,1.06
2023-01-17T05:51:01.946Z,1.10
2023-01-17T05:52:01.902Z,1.08
2023-01-17T05:53:01.927Z,1.10
2023-01-17T05:54:01.909Z,1.13
2023-01-17T05:55:01.913Z,1.05
2023-01-17T05:56:01.874Z,1.10
2023-01-17T05:57:01.881Z,1.12
2023-01-17T05:58:01.852Z,1.13
2023-01-17T05:59:01.879Z,1.14
2023-01-17T06:00:01.827Z,1.14
2023-01-17T06:01:01.907Z,1.17
2023-01-17T06:02:01.805Z,1.16
2023-01-17T06:03:01.843Z,1.16
2023-01-17T06:04:01.794Z,1.19
2023-01-17T06:05:03.431Z,1.17
2023-01-17T06:06:01.775Z,1.23
2023-01-17T06:07:01.784Z,1.24
2023-01-17T06:08:01.749Z,1.30
2023-01-17T06:09:01.757Z,1.31
2023-01-17T06:10:01.769Z,1.30
2023-01-17T06:11:01.747Z,1.31
2023-01-17T06:12:01.704Z,1.34
2023-01-17T06:13:01.724Z,1.35
2023-01-17T06:14:01.691Z,1.37
2023-01-17T06:15:01.704Z,1.38
2023-01-17T06:16:01.729Z,1.40
2023-01-17T06:17:01.693Z,1.40
2023-01-17T06:18:01.644Z,1.42
2023-01-17T06:19:01.685Z,1.41
2023-01-17T06:20:01.631Z,1.44
2023-01-17T06:21:01.670Z,1.42
2023-01-17T06:22:01.622Z,1.45
2023-01-17T06:23:01.621Z,1.44
2023-01-17T06:24:03.979Z,1.42
2023-01-17T06:25:01.600Z,1.45
2023-01-17T06:26:01.567Z,1.44
2023-01-17T06:27:01.601Z,1.48
2023-01-17T06:28:01.550Z,1.45
2023-01-17T06:29:01.565Z,1.45
2023-01-17T06:30:01.540Z,1.49
2023-01-17T06:31:01.669Z,1.44
2023-01-17T06:32:01.896Z,1.48
2023-01-17T06:33:01.543Z,1.49
2023-01-17T06:34:01.517Z,1.48
2023-01-17T06:35:01.531Z,1.49
2023-01-17T06:36:01.470Z,1.49
2023-01-17T06:37:01.511Z,1.45
2023-01-17T06:38:01.461Z,1.45
2023-01-17T06:39:01.463Z,1.42
2023-01-17T06:40:01.431Z,1.41
2023-01-17T06:41:01.457Z,1.45
2023-01-17T06:42:01.418Z,1.44
2023-01-17T06:43:01.453Z,1.44
2023-01-17T06:44:01.396Z,1.44
2023-01-17T06:45:01.397Z,1.44
2023-01-17T06:46:01.371Z,1.45
2023-01-17T06:47:01.388Z,1.45
2023-01-17T06:48:01.363Z,1.45
2023-01-17T06:49:01.369Z,1.45
2023-01-17T06:50:01.324Z,1.41
2023-01-17T06:51:01.343Z,1.45
2023-01-17T06:52:01.306Z,1.45
2023-01-17T06:53:01.316Z,1.44
2023-01-17T06:54:01.333Z,1.44
2023-01-17T06:55:01.308Z,1.45
2023-01-17T06:56:01.271Z,1.44
2023-01-17T06:57:01.274Z,1.48
2023-01-17T06:58:01.255Z,1.45
2023-01-17T06:59:01.259Z,1.49
2023-01-17T07:00:01.597Z,1.52
2023-01-17T07:01:01.304Z,1.52
2023-01-17T07:02:01.208Z,1.48
2023-01-17T07:03:01.226Z,1.50
2023-01-17T07:04:01.247Z,1.52
2023-01-17T07:05:01.230Z,1.52
2023-01-17T07:06:01.169Z,1.53
2023-01-17T07:07:01.180Z,1.52
2023-01-17T07:08:01.144Z,1.52
2023-01-17T07:09:01.158Z,1.49
2023-01-17T07:10:01.138Z,1.52
2023-01-17T07:11:01.145Z,1.50
2023-01-17T07:12:01.105Z,1.48
2023-01-17T07:13:01.112Z,1.48
2023-01-17T07:14:01.083Z,1.49
2023-01-17T07:15:01.105Z,1.52
2023-01-17T07:16:01.203Z,1.53
2023-01-17T07:17:01.075Z,1.52
2023-01-17T07:18:01.042Z,1.53
2023-01-17T07:19:01.057Z,1.53
2023-01-17T07:20:01.025Z,1.53
2023-01-17T07:21:01.041Z,1.53
2023-01-17T07:22:01.013Z,1.52
2023-01-17T07:23:01.014Z,1.53
2023-01-17T07:24:00.997Z,1.53
2023-01-17T07:25:01.003Z,1.50
2023-01-17T07:26:00.959Z,1.50
2023-01-17T07:27:01.007Z,1.52
2023-01-17T07:28:00.944Z,1.50
2023-01-17T07:29:00.953Z,1.53
2023-01-17T07:30:00.930Z,1.53
2023-01-17T07:31:00.985Z,1.49
2023-01-17T07:32:00.900Z,1.52
2023-01-17T07:33:00.924Z,1.50
2023-01-17T07:34:00.881Z,1.50
2023-01-17T07:35:00.895Z,1.53
2023-01-17T07:36:00.865Z,1.50
2023-01-17T07:37:00.882Z,1.50
2023-01-17T07:38:00.857Z,1.50
2023-01-17T07:39:00.853Z,1.53
2023-01-17T07:40:00.828Z,1.50
2023-01-17T07:41:00.833Z,1.53
2023-01-17T07:42:00.851Z,1.50
2023-01-17T07:43:00.819Z,1.49
2023-01-17T07:44:00.794Z,1.50
2023-01-17T07:45:00.792Z,1.48
2023-01-17T07:46:02.199Z,1.49
2023-01-17T07:47:00.784Z,1.50
2023-01-17T07:48:00.747Z,1.49
2023-01-17T07:49:00.776Z,1.52
2023-01-17T07:50:00.721Z,1.50
2023-01-17T07:51:00.732Z,1.50
2023-01-17T07:52:00.714Z,1.50
2023-01-17T07:53:00.713Z,1.50
2023-01-17T07:54:00.682Z,1.52
2023-01-17T07:55:00.714Z,1.52
2023-01-17T07:56:00.665Z,1.45
2023-01-17T07:57:00.675Z,1.53
2023-01-17T07:58:02.855Z,1.55
2023-01-17T07:59:00.660Z,1.53
2023-01-17T08:00:00.647Z,1.53
2023-01-17T08:01:00.780Z,1.53
2023-01-17T08:02:00.809Z,1.56
2023-01-17T08:03:00.618Z,1.56
2023-01-17T08:04:00.632Z,1.59
2023-01-17T08:05:00.616Z,1.53
2023-01-17T08:06:00.571Z,1.55
2023-01-17T08:07:00.571Z,1.56
2023-01-17T08:08:00.539Z,1.55
2023-01-17T08:09:00.557Z,1.58
2023-01-17T08:10:00.528Z,1.62
2023-01-17T08:11:00.561Z,1.62
2023-01-17T08:12:00.529Z,1.66
2023-01-17T08:13:00.527Z,1.62
2023-01-17T08:14:00.496Z,1.66
2023-01-17T08:15:00.495Z,1.66
2023-01-17T08:16:00.529Z,1.63
2023-01-17T08:17:00.483Z,1.67
2023-01-17T08:18:00.443Z,1.68
2023-01-17T08:19:00.448Z,1.68
2023-01-17T08:20:00.435Z,1.68
2023-01-17T08:21:00.431Z,1.70
2023-01-17T08:22:00.423Z,1.71
2023-01-17T08:23:00.416Z,1.70
2023-01-17T08:24:00.379Z,1.73
2023-01-17T08:25:00.391Z,1.74
2023-01-17T08:26:00.358Z,1.76
2023-01-17T08:27:00.453Z,1.77
2023-01-17T08:28:00.354Z,1.71
2023-01-17T08:29:00.429Z,1.71
2023-01-17T08:30:00.319Z,1.73
2023-01-17T08:31:00.334Z,1.73
2023-01-17T08:32:00.306Z,1.73
2023-01-17T08:33:00.330Z,1.71
2023-01-17T08:34:00.321Z,1.68
2023-01-17T08:35:00.273Z,1.60
2023-01-17T08:36:00.278Z,1.67
2023-01-17T08:37:00.252Z,1.70
2023-01-17T08:38:00.257Z,1.74
2023-01-17T08:39:00.236Z,1.74
2023-01-17T08:40:00.238Z,1.74
2023-01-17T08:41:00.213Z,1.76
2023-01-17T08:42:00.219Z,1.74
2023-01-17T08:43:00.209Z,1.81
2023-01-17T08:44:00.229Z,1.91
2023-01-17T08:45:00.168Z,2.00
2023-01-17T08:46:00.480Z,2.04
2023-01-17T08:47:00.148Z,2.14
2023-01-17T08:48:00.163Z,2.11
2023-01-17T08:49:00.214Z,2.22
2023-01-17T08:50:00.168Z,2.47
2023-01-17T08:51:00.111Z,2.31
2023-01-17T08:52:00.137Z,2.47
2023-01-17T08:53:01.200Z,2.57
2023-01-17T08:54:00.155Z,2.49
2023-01-17T08:55:00.105Z,2.31
2023-01-17T08:56:00.103Z,2.26
2023-01-17T08:57:00.063Z,2.29
2023-01-17T08:58:00.109Z,2.18
2023-01-17T08:59:00.025Z,2.11
2023-01-17T09:00:00.042Z,2.08
2023-01-17T09:01:00.142Z,2.07
2023-01-17T09:02:00.211Z,2.06
2023-01-17T09:02:59.989Z,2.02
2023-01-17T09:04:00.025Z,2.04
2023-01-17T09:04:59.977Z,2.06
2023-01-17T09:06:00.006Z,2.13
2023-01-17T09:06:59.946Z,2.18
2023-01-17T09:07:59.959Z,2.24
2023-01-17T09:08:59.925Z,2.24
2023-01-17T09:09:59.950Z,2.26
2023-01-17T09:10:59.913Z,2.25
2023-01-17T09:11:59.930Z,2.18
2023-01-17T09:12:59.946Z,2.17
2023-01-17T09:13:59.901Z,2.17
2023-01-17T09:14:59.866Z,2.15
2023-01-17T09:15:59.877Z,2.15
2023-01-17T09:16:59.867Z,2.22
2023-01-17T09:17:59.869Z,2.22
2023-01-17T09:18:59.829Z,2.18
2023-01-17T09:19:59.838Z,2.20
2023-01-17T09:20:59.807Z,2.32
2023-01-17T09:21:59.832Z,2.33
2023-01-17T09:22:59.797Z,2.44
2023-01-17T09:23:59.802Z,2.47
2023-01-17T09:24:59.766Z,2.49
2023-01-17T09:25:59.781Z,2.44
2023-01-17T09:26:59.747Z,2.35
2023-01-17T09:27:59.829Z,2.33
2023-01-17T09:28:59.727Z,2.28
2023-01-17T09:29:59.777Z,2.25
2023-01-17T09:30:59.749Z,2.22
2023-01-17T09:31:59.715Z,2.20
2023-01-17T09:32:59.681Z,2.25
2023-01-17T09:33:59.709Z,2.32
2023-01-17T09:34:59.664Z,2.28
2023-01-17T09:35:59.680Z,2.26
2023-01-17T09:36:59.646Z,2.20
2023-01-17T09:37:59.660Z,2.17
2023-01-17T09:38:59.660Z,2.20
2023-01-17T09:39:59.648Z,2.24
2023-01-17T09:40:59.602Z,2.25
2023-01-17T09:41:59.622Z,2.26
2023-01-17T09:42:59.581Z,2.29
2023-01-17T09:43:59.596Z,2.26
2023-01-17T09:44:59.575Z,2.25
2023-01-17T09:45:59.688Z,2.26
2023-01-17T09:46:59.587Z,2.26
2023-01-17T09:47:59.555Z,2.22
2023-01-17T09:48:59.532Z,2.17
2023-01-17T09:49:59.553Z,2.18
2023-01-17T09:50:59.513Z,2.18
2023-01-17T09:51:59.517Z,2.28
2023-01-17T09:52:59.479Z,2.38
2023-01-17T09:53:59.493Z,2.46
2023-01-17T09:54:59.465Z,2.49
2023-01-17T09:55:59.486Z,2.56
2023-01-17T09:56:59.440Z,2.57
2023-01-17T09:57:59.454Z,2.65
2023-01-17T09:58:59.448Z,2.64
2023-01-17T10:00:03.528Z,2.61
2023-01-17T10:00:59.539Z,2.64
2023-01-17T10:01:59.551Z,2.64
2023-01-17T10:02:59.430Z,2.61
2023-01-17T10:03:59.509Z,2.64
2023-01-17T10:04:59.386Z,2.64
2023-01-17T10:05:59.401Z,2.71
2023-01-17T10:06:59.340Z,2.74
2023-01-17T10:07:59.364Z,2.74
2023-01-17T10:08:59.339Z,2.72
2023-01-17T10:09:59.338Z,2.75
2023-01-17T10:10:59.301Z,2.67
2023-01-17T10:11:59.320Z,2.62
2023-01-17T10:12:59.282Z,2.56
2023-01-17T10:13:59.297Z,2.60
2023-01-17T10:14:59.259Z,2.57
2023-01-17T10:16:00.214Z,2.57
2023-01-17T10:16:59.307Z,2.57
2023-01-17T10:17:59.254Z,2.61
2023-01-17T10:18:59.222Z,2.64
2023-01-17T10:19:59.231Z,2.65
2023-01-17T10:20:59.197Z,2.65
2023-01-17T10:21:59.220Z,2.56
2023-01-17T10:22:59.188Z,2.62
2023-01-17T10:23:59.211Z,2.61
2023-01-17T10:24:59.213Z,2.69
2023-01-17T10:25:59.174Z,2.74
2023-01-17T10:26:59.141Z,2.82
2023-01-17T10:27:59.200Z,2.86
2023-01-17T10:28:59.117Z,2.89
2023-01-17T10:29:59.130Z,2.89
2023-01-17T10:30:59.126Z,2.92
2023-01-17T10:31:59.109Z,2.97
2023-01-17T10:32:59.077Z,3.05
2023-01-17T10:33:59.099Z,3.13
2023-01-17T10:34:59.060Z,3.14
2023-01-17T10:35:59.070Z,3.26
2023-01-17T10:36:59.038Z,3.14
2023-01-17T10:37:59.051Z,2.97
2023-01-17T10:38:59.029Z,2.95
2023-01-17T10:39:59.029Z,2.92
2023-01-17T10:40:58.993Z,2.92
2023-01-17T10:41:59.009Z,2.93
2023-01-17T10:42:58.981Z,2.98
2023-01-17T10:43:58.993Z,2.97
2023-01-17T10:44:58.970Z,2.86
2023-01-17T10:45:58.999Z,2.79
2023-01-17T10:46:58.933Z,2.79
2023-01-17T10:47:58.953Z,2.79
2023-01-17T10:48:58.916Z,2.80
2023-01-17T10:49:58.955Z,2.80
2023-01-17T10:50:58.893Z,2.82
2023-01-17T10:51:58.964Z,2.92
2023-01-17T10:52:58.888Z,2.90
2023-01-17T10:54:01.666Z,2.90
2023-01-17T10:54:58.853Z,2.89
2023-01-17T10:55:58.876Z,2.86
2023-01-17T10:56:58.835Z,2.85
2023-01-17T10:57:58.845Z,2.92
2023-01-17T10:58:58.814Z,2.98
2023-01-17T10:59:58.823Z,3.03
2023-01-17T11:00:58.835Z,3.16
2023-01-17T11:01:58.858Z,3.14
2023-01-17T11:02:58.797Z,3.19
2023-01-17T11:03:58.803Z,3.21
2023-01-17T11:04:58.755Z,3.26
2023-01-17T11:05:58.770Z,3.26
2023-01-17T11:06:58.740Z,3.32
2023-01-17T11:07:58.743Z,3.34
2023-01-17T11:08:58.707Z,3.41
2023-01-17T11:09:58.722Z,3.62
2023-01-17T11:10:58.689Z,3.92
2023-01-17T11:11:58.723Z,4.34
2023-01-17T11:12:58.670Z,4.70
2023-01-17T11:13:58.689Z,4.90
2023-01-17T11:14:58.772Z,4.92
2023-01-17T11:15:58.692Z,4.63
2023-01-17T11:16:58.631Z,4.78
2023-01-17T11:17:58.650Z,4.77
2023-01-17T11:18:58.614Z,4.38
2023-01-17T11:19:58.620Z,4.14
2023-01-17T11:20:58.618Z,4.05
2023-01-17T11:21:58.600Z,3.92
2023-01-17T11:22:58.581Z,3.74
2023-01-17T11:23:58.584Z,3.84
2023-01-17T11:24:58.547Z,3.51
2023-01-17T11:25:58.588Z,3.28
2023-01-17T11:26:58.527Z,3.05
2023-01-17T11:27:58.568Z,2.97
2023-01-17T11:28:58.508Z,2.89
2023-01-17T11:29:58.518Z,2.97
2023-01-17T11:30:58.505Z,3.13
2023-01-17T11:31:58.501Z,3.23
2023-01-17T11:32:58.464Z,3.86
2023-01-17T11:33:58.487Z,3.96
2023-01-17T11:34:58.441Z,4.13
2023-01-17T11:35:58.457Z,4.16
2023-01-17T11:36:58.425Z,4.38
2023-01-17T11:37:58.440Z,4.37
2023-01-17T11:38:58.438Z,4.16
2023-01-17T11:39:58.421Z,3.87
2023-01-17T11:40:58.386Z,4.10
2023-01-17T11:41:58.394Z,4.04
2023-01-17T11:42:58.360Z,3.98
2023-01-17T11:43:58.378Z,3.98
2023-01-17T11:44:58.352Z,4.16
2023-01-17T11:45:58.408Z,4.13
2023-01-17T11:46:58.319Z,4.16
2023-01-17T11:47:58.341Z,3.88
2023-01-17T11:48:58.298Z,4.05
2023-01-17T11:49:58.339Z,4.20
2023-01-17T11:50:58.278Z,4.14
2023-01-17T11:51:58.290Z,4.23
2023-01-17T11:52:58.258Z,4.20
2023-01-17T11:53:58.273Z,4.26
2023-01-17T11:54:58.240Z,4.22
2023-01-17T11:55:58.281Z,4.08
2023-01-17T11:56:58.220Z,3.98
2023-01-17T11:57:58.229Z,3.98
2023-01-17T11:58:58.194Z,3.95
2023-01-17T11:59:58.208Z,4.01
2023-01-17T12:00:58.261Z,3.98
2023-01-17T12:01:58.189Z,4.02
2023-01-17T12:02:58.157Z,4.10
2023-01-17T12:03:58.207Z,4.12
2023-01-17T12:04:58.186Z,4.06
2023-01-17T12:05:58.151Z,4.06
2023-01-17T12:06:58.682Z,4.14
2023-01-17T12:07:58.131Z,4.12
2023-01-17T12:08:58.097Z,4.17
2023-01-17T12:09:58.103Z,4.16
2023-01-17T12:10:58.079Z,3.98
2023-01-17T12:11:58.102Z,3.83
2023-01-17T12:12:58.052Z,3.80
2023-01-17T12:13:58.066Z,3.86
2023-01-17T12:14:58.029Z,3.95
2023-01-17T12:15:58.082Z,4.06
2023-01-17T12:16:58.009Z,4.23
2023-01-17T12:17:58.031Z,4.16
2023-01-17T12:18:57.989Z,4.08
2023-01-17T12:19:58.003Z,4.06
2023-01-17T12:20:57.965Z,4.01
2023-01-17T12:21:57.985Z,3.94
2023-01-17T12:22:57.977Z,3.88
2023-01-17T12:23:57.969Z,3.84
2023-01-17T12:24:57.927Z,3.86
2023-01-17T12:25:57.958Z,3.87
2023-01-17T12:26:57.907Z,3.98
2023-01-17T12:27:57.917Z,4.06
2023-01-17T12:28:57.899Z,4.12
2023-01-17T12:29:57.896Z,4.06
2023-01-17T12:30:57.893Z,4.04
2023-01-17T12:31:57.893Z,3.94
2023-01-17T12:32:57.843Z,3.88
2023-01-17T12:33:57.868Z,3.84
2023-01-17T12:34:57.826Z,3.86
2023-01-17T12:35:57.848Z,3.96
2023-01-17T12:36:57.804Z,3.99
2023-01-17T12:38:04.940Z,3.98
2023-01-17T12:38:57.788Z,3.96
2023-01-17T12:39:57.816Z,3.94
2023-01-17T12:40:57.761Z,3.96
2023-01-17T12:41:57.778Z,3.98
2023-01-17T12:42:57.744Z,3.86
2023-01-17T12:43:57.756Z,3.87
2023-01-17T12:44:57.739Z,3.95
2023-01-17T12:45:57.734Z,3.94
2023-01-17T12:46:57.739Z,3.98
2023-01-17T12:47:57.693Z,4.13
2023-01-17T12:48:57.707Z,4.48
2023-01-17T12:49:57.672Z,4.74
2023-01-17T12:50:57.702Z,4.99
2023-01-17T12:51:57.649Z,5.25
2023-01-17T12:52:57.659Z,5.38
2023-01-17T12:53:57.626Z,5.65
2023-01-17T12:54:57.660Z,5.75
2023-01-17T12:55:57.681Z,5.76
2023-01-17T12:56:57.625Z,5.76
2023-01-17T12:57:57.592Z,6.04
2023-01-17T12:58:57.603Z,6.01
2023-01-17T12:59:57.566Z,5.61
2023-01-17T13:00:57.780Z,5.15
2023-01-17T13:01:58.068Z,4.89
2023-01-17T13:02:57.555Z,5.11
2023-01-17T13:03:57.877Z,5.47
2023-01-17T13:04:59.017Z,5.69
2023-01-17T13:05:57.501Z,5.44
2023-01-17T13:06:57.555Z,5.20
2023-01-17T13:07:57.490Z,5.10
2023-01-17T13:08:57.495Z,4.97
2023-01-17T13:09:57.478Z,4.94
2023-01-17T13:10:57.475Z,4.71
2023-01-17T13:11:57.441Z,4.56
2023-01-17T13:12:57.466Z,4.55
2023-01-17T13:13:57.507Z,4.58
2023-01-17T13:14:57.446Z,4.67
2023-01-17T13:15:57.412Z,4.67
2023-01-17T13:16:57.414Z,4.63
2023-01-17T13:17:57.403Z,4.48